createdAt,value
2023-01-22T00:00:43.049Z,0.25
2023-01-22T00:03:29.000Z,0.23
2023-01-22T00:06:16.143Z,0.24
2023-01-22T00:09:03.792Z,0.25
2023-01-22T00:11:49.912Z,0.24
2023-01-22T00:14:36.475Z,0.23
2023-01-22T00:17:22.312Z,0.23
2023-01-22T00:20:08.777Z,0.22
2023-01-22T00:22:56.636Z,0.21
2023-01-22T00:25:43.021Z,0.22
2023-01-22T00:28:29.180Z,0.20
2023-01-22T00:31:15.614Z,0.19
2023-01-22T00:34:01.932Z,0.21
2023-01-22T00:36:54.589Z,0.19
2023-01-22T00:39:42.916Z,0.19
2023-01-22T00:42:29.367Z,0.19
2023-01-22T00:45:16.383Z,0.20
2023-01-22T00:48:02.426Z,0.22
2023-01-22T00:50:49.577Z,0.21
2023-01-22T00:53:35.662Z,0.20
2023-01-22T00:56:23.796Z,0.21
2023-01-22T00:59:10.613Z,0.21
2023-01-22T01:01:57.442Z,0.22
2023-01-22T01:04:45.616Z,0.21
2023-01-22T01:07:31.892Z,0.19
2023-01-22T01:10:18.387Z,0.16
2023-01-22T01:13:06.268Z,0.13
2023-01-22T01:15:59.024Z,0.15
2023-01-22T01:18:45.462Z,0.17
2023-01-22T01:21:31.841Z,0.15
2023-01-22T01:24:17.903Z,0.12
2023-01-22T01:27:03.941Z,0.13
2023-01-22T01:29:51.612Z,0.16
2023-01-22T01:32:37.844Z,0.12
2023-01-22T01:35:24.381Z,0.13
2023-01-22T01:38:10.630Z,0.13
2023-01-22T01:40:56.783Z,0.10
2023-01-22T01:43:42.954Z,0.12
2023-01-22T01:46:30.307Z,0.12
2023-01-22T01:49:19.596Z,0.12
2023-01-22T01:52:06.227Z,0.13
2023-01-22T01:54:53.204Z,0.18
2023-01-22T01:57:38.985Z,0.19
2023-01-22T02:00:25.115Z,0.16
2023-01-22T02:03:12.407Z,0.13
2023-01-22T02:05:59.416Z,0.14
2023-01-22T02:08:45.941Z,0.12
2023-01-22T02:11:31.832Z,0.11
2023-01-22T02:14:18.279Z,0.09
2023-01-22T02:17:07.985Z,0.07
2023-01-22T02:19:55.448Z,0.11
2023-01-22T02:22:42.557Z,0.13
2023-01-22T02:25:28.777Z,0.09
2023-01-22T02:28:14.617Z,0.12
2023-01-22T02:31:00.993Z,0.12
2023-01-22T02:33:47.210Z,0.07
2023-01-22T02:36:35.117Z,0.04
2023-01-22T02:39:22.296Z,0.07
2023-01-22T02:42:09.698Z,0.09
2023-01-22T02:44:56.774Z,0.07
2023-01-22T02:47:42.661Z,0.08
2023-01-22T02:50:28.499Z,0.07
2023-01-22T02:53:14.602Z,0.03
2023-01-22T02:56:05.787Z,0.03
2023-01-22T02:58:51.694Z,0.01
2023-01-22T03:01:37.683Z,0.03
2023-01-22T03:04:24.020Z,0.03
2023-01-22T03:07:10.192Z,0.08
2023-01-22T03:09:56.297Z,0.06
2023-01-22T03:13:01.332Z,0.02
2023-01-22T03:16:05.258Z,0.06
2023-01-22T03:19:09.146Z,0.05
2023-01-22T03:21:55.353Z,-0.02
2023-01-22T03:24:41.173Z,0.03
2023-01-22T03:27:27.427Z,0.03
2023-01-22T03:30:15.783Z,0.01
2023-01-22T03:33:01.654Z,-0.02
2023-01-22T03:35:48.073Z,0.04
2023-01-22T03:38:38.117Z,0.04
2023-01-22T03:41:27.101Z,0.02
2023-01-22T03:44:14.277Z,0.03
2023-01-22T03:47:02.659Z,0.04
2023-01-22T03:49:48.613Z,0.03
2023-01-22T03:52:35.333Z,0.04
2023-01-22T03:55:22.708Z,0.01
2023-01-22T03:58:08.932Z,-0.02
2023-01-22T04:00:57.767Z,-0.01
2023-01-22T04:03:45.219Z,0.01
2023-01-22T04:06:31.603Z,0.03
2023-01-22T04:09:18.069Z,0.03
2023-01-22T04:12:07.937Z,-0.01
2023-01-22T04:14:54.024Z,-0.02
2023-01-22T04:17:40.805Z,0.02
2023-01-22T04:20:47.199Z,0.04
2023-01-22T04:23:38.466Z,-0.02
2023-01-22T04:26:25.047Z,-0.01
2023-01-22T04:29:12.445Z,0.01
2023-01-22T04:31:58.678Z,-0.01
2023-01-22T04:35:11.210Z,-0.04
2023-01-22T04:38:04.963Z,-0.03
2023-01-22T04:40:51.126Z,-0.02
2023-01-22T04:43:37.045Z,-0.05
2023-01-22T04:46:22.837Z,-0.01
2023-01-22T04:49:09.666Z,0.01
2023-01-22T04:51:56.336Z,-0.01
2023-01-22T04:54:44.074Z,-0.02
2023-01-22T04:57:30.374Z,-0.06
2023-01-22T05:00:17.945Z,-0.06
2023-01-22T05:03:04.905Z,-0.05
2023-01-22T05:05:51.170Z,-0.07
2023-01-22T05:08:37.556Z,-0.04
2023-01-22T05:11:24.571Z,-0.03
2023-01-22T05:14:15.316Z,-0.05
2023-01-22T05:17:02.661Z,-0.05
2023-01-22T05:19:48.814Z,-0.04
2023-01-22T05:22:38.654Z,-0.02
2023-01-22T05:25:25.018Z,-0.05
2023-01-22T05:28:12.757Z,-0.04
2023-01-22T05:31:18.630Z,-0.01
2023-01-22T05:34:09.499Z,-0.01
2023-01-22T05:36:56.832Z,-0.03
2023-01-22T05:39:45.056Z,0.03
2023-01-22T05:42:30.778Z,-0.03
2023-01-22T05:45:18.469Z,-0.04
2023-01-22T05:48:24.497Z,0.01
2023-01-22T05:51:17.710Z,0.02
2023-01-22T05:54:03.834Z,-0.01
2023-01-22T05:56:52.617Z,0.03
2023-01-22T05:59:39.299Z,0.04
2023-01-22T06:02:28.450Z,0.03
2023-01-22T06:05:15.198Z,0.02
2023-01-22T06:08:02.990Z,0.07
2023-01-22T06:11:00.227Z,0.05
2023-01-22T06:13:47.808Z,0.07
2023-01-22T06:16:36.524Z,-0.01
2023-01-22T06:19:28.985Z,0.05
2023-01-22T06:22:14.669Z,0.01
2023-01-22T06:25:09.291Z,0.02
2023-01-22T06:28:27.448Z,0.05
2023-01-22T06:31:13.962Z,0.07
2023-01-22T06:34:00.506Z,0.03
2023-01-22T06:36:47.709Z,0.04
2023-01-22T06:39:34.046Z,0.04
2023-01-22T06:42:26.980Z,0.03
2023-01-22T06:45:13.303Z,0.07
2023-01-22T06:48:04.263Z,0.04
2023-01-22T06:50:50.081Z,0.05
2023-01-22T06:53:37.146Z,0.08
2023-01-22T06:56:23.377Z,0.10
2023-01-22T06:59:10.015Z,0.08
2023-01-22T07:01:56.020Z,0.10
2023-01-22T07:04:41.805Z,0.08
2023-01-22T07:07:27.735Z,0.14
2023-01-22T07:10:14.906Z,0.14
2023-01-22T07:13:01.507Z,0.10
2023-01-22T07:15:47.594Z,0.14
2023-01-22T07:18:33.904Z,0.13
2023-01-22T07:21:19.695Z,0.12
2023-01-22T07:24:05.988Z,0.16
2023-01-22T07:26:53.535Z,0.13
2023-01-22T07:29:39.288Z,0.16
2023-01-22T07:32:25.461Z,0.14
2023-01-22T07:35:11.409Z,0.16
2023-01-22T07:37:57.920Z,0.19
2023-01-22T07:40:43.967Z,0.15
2023-01-22T07:43:31.098Z,0.13
2023-01-22T07:46:18.936Z,0.14
2023-01-22T07:49:04.827Z,0.19
2023-01-22T07:51:50.662Z,0.22
2023-01-22T07:54:37.041Z,0.19
2023-01-22T07:57:23.086Z,0.17
2023-01-22T08:00:11.424Z,0.16
2023-01-22T08:03:00.539Z,0.13
2023-01-22T08:05:48.064Z,0.21
2023-01-22T08:08:33.882Z,0.15
2023-01-22T08:11:19.781Z,0.20
2023-01-22T08:14:05.903Z,0.17
2023-01-22T08:16:53.206Z,0.23
2023-01-22T08:19:38.922Z,0.21
2023-01-22T08:22:24.735Z,0.24
2023-01-22T08:25:10.863Z,0.28
2023-01-22T08:27:57.021Z,0.34
2023-01-22T08:30:46.488Z,0.32
2023-01-22T08:33:34.592Z,0.36
2023-01-22T08:36:20.235Z,0.37
2023-01-22T08:39:06.200Z,0.40
2023-01-22T08:41:57.340Z,0.42
2023-01-22T08:44:43.430Z,0.42
2023-01-22T08:47:29.259Z,0.39
2023-01-22T08:50:17.664Z,0.48
2023-01-22T08:53:03.752Z,0.51
2023-01-22T08:55:49.780Z,0.50
2023-01-22T08:58:35.949Z,0.53
2023-01-22T09:01:21.851Z,0.57
2023-01-22T09:04:08.384Z,0.61
2023-01-22T09:06:55.806Z,0.65
2023-01-22T09:09:41.673Z,0.64
2023-01-22T09:12:27.577Z,0.66
2023-01-22T09:15:13.453Z,0.63
2023-01-22T09:18:00.083Z,0.69
2023-01-22T09:20:46.199Z,0.74
2023-01-22T09:23:33.491Z,0.74
2023-01-22T09:26:19.377Z,0.73
2023-01-22T09:29:06.357Z,0.77
2023-01-22T09:31:52.492Z,0.76
2023-01-22T09:34:38.906Z,0.78
2023-01-22T09:37:25.210Z,0.81
2023-01-22T09:40:13.352Z,0.83
2023-01-22T09:43:01.649Z,0.86
2023-01-22T09:45:47.565Z,0.83
2023-01-22T09:48:35.457Z,0.87
2023-01-22T09:51:22.220Z,0.92
2023-01-22T09:54:08.689Z,0.96
2023-01-22T09:56:56.717Z,1.00
2023-01-22T09:59:45.864Z,1.01
2023-01-22T10:02:32.045Z,1.02
2023-01-22T10:05:19.471Z,1.05
2023-01-22T10:08:07.451Z,1.10
2023-01-22T10:10:53.335Z,1.15
2023-01-22T10:13:40.668Z,1.10
2023-01-22T10:16:26.798Z,1.18
2023-01-22T10:19:15.000Z,1.11
2023-01-22T10:22:02.041Z,1.13
2023-01-22T10:24:48.301Z,1.18
2023-01-22T10:27:35.046Z,1.23
2023-01-22T10:30:23.584Z,1.26
2023-01-22T10:33:14.725Z,1.27
2023-01-22T10:36:00.849Z,1.33
2023-01-22T10:38:46.982Z,1.33
2023-01-22T10:41:33.071Z,1.27
2023-01-22T10:44:20.281Z,1.31
2023-01-22T10:47:18.238Z,1.44
2023-01-22T10:50:05.384Z,1.49
2023-01-22T10:52:51.775Z,1.51
2023-01-22T10:55:38.652Z,1.51
2023-01-22T10:58:25.672Z,1.56
2023-01-22T11:01:23.042Z,1.56
2023-01-22T11:04:14.359Z,1.54
2023-01-22T11:07:01.140Z,1.63
2023-01-22T11:09:47.617Z,1.66
2023-01-22T11:12:34.241Z,1.73
2023-01-22T11:15:22.068Z,1.74
2023-01-22T11:18:08.126Z,1.80
2023-01-22T11:20:55.740Z,1.78
2023-01-22T11:23:44.289Z,1.67
2023-01-22T11:26:42.606Z,1.81
2023-01-22T11:29:31.510Z,1.69
2023-01-22T11:32:26.033Z,1.75
2023-01-22T11:35:14.493Z,1.84
2023-01-22T11:38:04.127Z,1.84
2023-01-22T11:40:58.516Z,1.90
2023-01-22T11:43:55.418Z,1.88
2023-01-22T11:46:45.956Z,1.91
2023-01-22T11:49:34.013Z,1.79
2023-01-22T11:52:23.153Z,1.87
2023-01-22T11:55:23.097Z,1.86
2023-01-22T11:58:12.197Z,1.91
2023-01-22T12:01:00.815Z,1.90
2023-01-22T12:03:54.834Z,1.94
2023-01-22T12:06:51.415Z,1.84
2023-01-22T12:09:39.734Z,1.88
2023-01-22T12:12:30.951Z,1.82
2023-01-22T12:15:20.704Z,1.92
2023-01-22T12:18:11.933Z,1.93
2023-01-22T12:21:07.356Z,1.95
2023-01-22T12:23:53.685Z,1.92
2023-01-22T12:26:40.291Z,1.96
2023-01-22T12:29:29.392Z,1.97
2023-01-22T12:32:18.973Z,1.87
2023-01-22T12:35:06.245Z,1.93
2023-01-22T12:37:54.689Z,1.95
2023-01-22T12:40:52.467Z,1.88
2023-01-22T12:43:38.977Z,1.93
2023-01-22T12:46:29.722Z,1.79
2023-01-22T12:49:17.092Z,1.76
2023-01-22T12:52:03.232Z,1.90
2023-01-22T12:54:54.273Z,1.89
2023-01-22T12:57:40.764Z,1.72
2023-01-22T13:00:30.250Z,1.87
2023-01-22T13:03:31.688Z,1.83
2023-01-22T13:06:19.137Z,1.88
2023-01-22T13:09:05.627Z,1.90
2023-01-22T13:11:51.537Z,1.90
2023-01-22T13:14:37.546Z,1.89
2023-01-22T13:17:24.509Z,1.88
2023-01-22T13:20:16.708Z,1.89
2023-01-22T13:23:04.056Z,1.91
2023-01-22T13:25:53.512Z,1.88
2023-01-22T13:28:41.982Z,1.81
2023-01-22T13:31:28.566Z,1.84
2023-01-22T13:34:16.030Z,1.85
2023-01-22T13:37:01.737Z,1.84
2023-01-22T13:39:49.349Z,1.83
2023-01-22T13:42:35.080Z,1.84
2023-01-22T13:45:22.160Z,1.85
2023-01-22T13:48:14.153Z,1.82
2023-01-22T13:51:00.590Z,1.82
2023-01-22T13:53:50.330Z,1.81
2023-01-22T13:56:38.284Z,1.77
2023-01-22T13:59:24.687Z,1.77
2023-01-22T14:02:19.934Z,1.71
2023-01-22T14:05:16.829Z,1.71
2023-01-22T14:08:06.929Z,1.64
2023-01-22T14:10:56.956Z,1.66
2023-01-22T14:13:46.262Z,1.64
2023-01-22T14:16:39.981Z,1.64
2023-01-22T14:19:26.064Z,1.57
2023-01-22T14:22:12.055Z,1.60
2023-01-22T14:24:57.835Z,1.56
2023-01-22T14:27:44.629Z,1.56
2023-01-22T14:30:32.050Z,1.51
2023-01-22T14:33:19.143Z,1.49
2023-01-22T14:36:05.404Z,1.49
2023-01-22T14:38:53.452Z,1.46
2023-01-22T14:41:39.180Z,1.48
2023-01-22T14:44:25.048Z,1.46
2023-01-22T14:47:12.200Z,1.42
2023-01-22T14:49:58.108Z,1.44
2023-01-22T14:52:43.863Z,1.42
2023-01-22T14:55:30.049Z,1.40
2023-01-22T14:58:16.201Z,1.39
2023-01-22T15:01:01.902Z,1.37
2023-01-22T15:03:49.395Z,1.34
2023-01-22T15:06:35.432Z,1.34
2023-01-22T15:09:21.258Z,1.29
2023-01-22T15:12:07.301Z,1.28
2023-01-22T15:14:53.189Z,1.21
2023-01-22T15:17:38.993Z,1.26
2023-01-22T15:20:26.737Z,1.16
2023-01-22T15:23:12.950Z,1.15
2023-01-22T15:25:59.317Z,1.16
2023-01-22T15:28:45.428Z,1.15
2023-01-22T15:31:31.512Z,1.16
2023-01-22T15:34:18.038Z,1.13
2023-01-22T15:37:05.408Z,1.13
2023-01-22T15:39:51.303Z,1.11
2023-01-22T15:42:37.171Z,1.11
2023-01-22T15:45:23.268Z,1.11
2023-01-22T15:48:11.130Z,1.12
2023-01-22T15:51:06.286Z,1.13
2023-01-22T15:53:54.461Z,1.11
2023-01-22T15:56:40.111Z,1.09
2023-01-22T15:59:25.818Z,1.09
2023-01-22T16:02:11.891Z,1.05
2023-01-22T16:04:57.472Z,1.05
2023-01-22T16:07:43.318Z,1.08
2023-01-22T16:10:30.545Z,1.01
2023-01-22T16:13:16.559Z,1.05
2023-01-22T16:16:03.216Z,1.05
2023-01-22T16:18:49.412Z,1.04
2023-01-22T16:21:35.420Z,1.04
2023-01-22T16:24:21.199Z,1.03
2023-01-22T16:27:08.175Z,1.03
2023-01-22T16:29:53.961Z,1.01
2023-01-22T16:32:42.471Z,1.01
2023-01-22T16:35:28.111Z,0.98
2023-01-22T16:38:13.989Z,0.99
2023-01-22T16:41:04.710Z,0.98
2023-01-22T16:43:52.486Z,0.99
2023-01-22T16:46:39.195Z,0.93
2023-01-22T16:49:25.826Z,0.96
2023-01-22T16:52:21.837Z,0.90
2023-01-22T16:55:09.444Z,0.89
2023-01-22T16:57:55.182Z,0.86
2023-01-22T17:00:42.184Z,0.89
2023-01-22T17:03:28.071Z,0.90
2023-01-22T17:06:18.280Z,0.92
2023-01-22T17:09:04.297Z,0.87
2023-01-22T17:11:50.421Z,0.85
2023-01-22T17:14:37.544Z,0.88
2023-01-22T17:17:25.051Z,0.88
2023-01-22T17:20:11.704Z,0.90
2023-01-22T17:22:57.957Z,0.92
2023-01-22T17:25:44.036Z,0.90
2023-01-22T17:28:30.092Z,0.88
2023-01-22T17:31:16.644Z,0.89
2023-01-22T17:34:04.070Z,0.89
2023-01-22T17:36:50.881Z,0.89
2023-01-22T17:39:37.231Z,0.90
2023-01-22T17:42:23.402Z,0.87
2023-01-22T17:45:10.172Z,0.88
2023-01-22T17:47:56.104Z,0.90
2023-01-22T17:50:43.395Z,0.92
2023-01-22T17:53:29.151Z,0.88
2023-01-22T17:56:15.783Z,0.88
2023-01-22T17:59:02.563Z,0.86
2023-01-22T18:01:48.886Z,0.89
2023-01-22T18:04:37.080Z,0.84
2023-01-22T18:07:24.319Z,0.87
2023-01-22T18:10:10.889Z,0.85
2023-01-22T18:12:57.059Z,0.83
2023-01-22T18:15:45.665Z,0.85
2023-01-22T18:18:31.667Z,0.87
2023-01-22T18:21:19.279Z,0.84
2023-01-22T18:24:07.656Z,0.84
2023-01-22T18:26:54.756Z,0.84
2023-01-22T18:29:40.810Z,0.85
2023-01-22T18:32:26.759Z,0.82
2023-01-22T18:35:13.277Z,0.77
2023-01-22T18:37:59.834Z,0.80
2023-01-22T18:40:46.900Z,0.77
2023-01-22T18:43:32.545Z,0.76
2023-01-22T18:46:18.776Z,0.77
2023-01-22T18:49:05.256Z,0.78
2023-01-22T18:51:51.125Z,0.77
2023-01-22T18:54:37.085Z,0.76
2023-01-22T18:57:24.559Z,0.79
2023-01-22T19:00:12.941Z,0.79
2023-01-22T19:02:59.060Z,0.79
2023-01-22T19:05:45.203Z,0.77
2023-01-22T19:08:30.948Z,0.76
2023-01-22T19:11:17.080Z,0.77
2023-01-22T19:14:06.818Z,0.78
2023-01-22T19:16:53.394Z,0.76
2023-01-22T19:19:39.336Z,0.76
2023-01-22T19:22:25.222Z,0.78
2023-01-22T19:25:11.209Z,0.75
2023-01-22T19:27:57.021Z,0.76
2023-01-22T19:30:44.019Z,0.75
2023-01-22T19:33:29.730Z,0.77
2023-01-22T19:36:15.562Z,0.79
2023-01-22T19:39:02.401Z,0.79
2023-01-22T19:41:49.070Z,0.78
2023-01-22T19:44:35.235Z,0.79
2023-01-22T19:47:22.453Z,0.81
2023-01-22T19:50:08.955Z,0.81
2023-01-22T19:52:55.069Z,0.80
2023-01-22T19:55:41.048Z,0.78
2023-01-22T19:58:27.981Z,0.79
2023-01-22T20:01:14.384Z,0.78
2023-01-22T20:04:01.762Z,0.77
2023-01-22T20:06:50.783Z,0.75
2023-01-22T20:09:36.998Z,0.78
2023-01-22T20:12:22.778Z,0.77
2023-01-22T20:15:09.240Z,0.78
2023-01-22T20:17:55.346Z,0.75
2023-01-22T20:20:42.617Z,0.76
2023-01-22T20:23:29.383Z,0.76
2023-01-22T20:26:15.857Z,0.78
2023-01-22T20:29:01.764Z,0.77
2023-01-22T20:31:50.644Z,0.80
2023-01-22T20:34:36.574Z,0.79
2023-01-22T20:37:24.165Z,0.78
2023-01-22T20:40:11.900Z,0.78
2023-01-22T20:42:58.047Z,0.78
2023-01-22T20:45:43.881Z,0.78
2023-01-22T20:48:30.810Z,0.78
2023-01-22T20:51:17.572Z,0.77
2023-01-22T20:54:04.611Z,0.78
2023-01-22T20:56:50.509Z,0.79
2023-01-22T20:59:36.339Z,0.81
2023-01-22T21:02:22.213Z,0.77
2023-01-22T21:05:08.720Z,0.80
2023-01-22T21:07:54.908Z,0.81
2023-01-22T21:10:41.899Z,0.80
2023-01-22T21:13:27.974Z,0.83
2023-01-22T21:16:14.838Z,0.82
2023-01-22T21:19:01.388Z,0.83
2023-01-22T21:21:51.171Z,0.82
2023-01-22T21:24:43.009Z,0.85
2023-01-22T21:27:32.319Z,0.85
2023-01-22T21:30:19.868Z,0.84
2023-01-22T21:33:09.216Z,0.82
2023-01-22T21:36:00.093Z,0.81
2023-01-22T21:38:48.279Z,0.82
2023-01-22T21:41:34.175Z,0.84
2023-01-22T21:44:41.142Z,0.82
2023-01-22T21:47:29.394Z,0.83
2023-01-22T21:50:18.145Z,0.80
2023-01-22T21:53:12.770Z,0.81
2023-01-22T21:55:58.752Z,0.82
2023-01-22T21:58:45.205Z,0.81
2023-01-22T22:01:33.821Z,0.79
2023-01-22T22:04:20.040Z,0.81
2023-01-22T22:07:05.824Z,0.81
2023-01-22T22:09:51.673Z,0.83
2023-01-22T22:12:37.467Z,0.82
2023-01-22T22:15:23.694Z,0.83
2023-01-22T22:18:10.930Z,0.82
2023-01-22T22:21:00.217Z,0.82
2023-01-22T22:23:45.986Z,0.83
2023-01-22T22:26:31.883Z,0.84
2023-01-22T22:29:17.654Z,0.86
2023-01-22T22:32:03.538Z,0.83
2023-01-22T22:34:50.665Z,0.83
2023-01-22T22:37:36.858Z,0.84
2023-01-22T22:40:22.941Z,0.86
2023-01-22T22:43:08.948Z,0.85
2023-01-22T22:45:54.770Z,0.85
2023-01-22T22:48:41.279Z,0.83
2023-01-22T22:51:29.187Z,0.84
2023-01-22T22:54:16.637Z,0.83
2023-01-22T22:57:02.699Z,0.84
2023-01-22T22:59:48.454Z,0.84
2023-01-22T23:02:34.342Z,0.85
2023-01-22T23:05:20.059Z,0.85
2023-01-22T23:08:07.255Z,0.87
2023-01-22T23:10:53.429Z,0.87
2023-01-22T23:13:39.816Z,0.83
2023-01-22T23:16:25.492Z,0.83
2023-01-22T23:19:13.507Z,0.84
2023-01-22T23:21:59.915Z,0.82
2023-01-22T23:24:47.178Z,0.83
2023-01-22T23:27:33.308Z,0.83
2023-01-22T23:30:20.134Z,0.83
2023-01-22T23:33:06.246Z,0.83
2023-01-22T23:35:56.862Z,0.82
2023-01-22T23:38:43.400Z,0.84
2023-01-22T23:41:30.779Z,0.82
2023-01-22T23:44:16.537Z,0.83
2023-01-22T23:47:02.399Z,0.81
2023-01-22T23:49:48.201Z,0.85
2023-01-22T23:52:34.021Z,0.84
2023-01-22T23:55:19.873Z,0.83
2023-01-22T23:58:06.920Z,0.83
